sensor_id;sensor_type;location;lat;lon;timestamp;P1;durP1;ratioP1;P2;durP2;ratioP2
2177;SDS011;1095;50.992;6.798;2023-02-15T00:00:07;62.28;;;32.63;;
2177;SDS011;1095;50.992;6.798;2023-02-15T00:02:35;59.42;;;31.48;;
2177;SDS011;1095;50.992;6.798;2023-02-15T00:05:02;65.22;;;34.03;;
2177;SDS011;1095;50.992;6.798;2023-02-15T00:07:30;58.25;;;32.40;;
2177;SDS011;1095;50.992;6.798;2023-02-15T00:09:56;63.85;;;33.38;;
2177;SDS011;1095;50.992;6.798;2023-02-15T00:12:23;63.97;;;33.95;;
2177;SDS011;1095;50.992;6.798;2023-02-15T00:14:49;65.68;;;33.35;;
2177;SDS011;1095;50.992;6.798;2023-02-15T00:17:16;59.97;;;32.72;;
2177;SDS011;1095;50.992;6.798;2023-02-15T00:19:43;60.50;;;32.45;;
2177;SDS011;1095;50.992;6.798;2023-02-15T00:22:09;63.45;;;32.53;;
2177;SDS011;1095;50.992;6.798;2023-02-15T00:24:37;62.83;;;33.85;;
2177;SDS011;1095;50.992;6.798;2023-02-15T00:27:04;67.63;;;34.45;;
2177;SDS011;1095;50.992;6.798;2023-02-15T00:29:31;66.30;;;35.25;;
2177;SDS011;1095;50.992;6.798;2023-02-15T00:31:58;66.45;;;34.40;;
2177;SDS011;1095;50.992;6.798;2023-02-15T00:34:26;67.70;;;35.38;;
2177;SDS011;1095;50.992;6.798;2023-02-15T00:36:53;65.22;;;34.78;;
2177;SDS011;1095;50.992;6.798;2023-02-15T00:39:20;67.15;;;33.85;;
2177;SDS011;1095;50.992;6.798;2023-02-15T00:41:50;71.55;;;34.47;;
2177;SDS011;1095;50.992;6.798;2023-02-15T00:44:17;65.47;;;33.70;;
2177;SDS011;1095;50.992;6.798;2023-02-15T00:46:43;66.88;;;33.55;;
2177;SDS011;1095;50.992;6.798;2023-02-15T00:49:10;73.13;;;36.45;;
2177;SDS011;1095;50.992;6.798;2023-02-15T00:51:37;59.60;;;32.63;;
2177;SDS011;1095;50.992;6.798;2023-02-15T00:54:04;64.43;;;33.70;;
2177;SDS011;1095;50.992;6.798;2023-02-15T00:56:31;61.83;;;32.83;;
2177;SDS011;1095;50.992;6.798;2023-02-15T00:58:59;66.13;;;34.58;;
2177;SDS011;1095;50.992;6.798;2023-02-15T01:01:25;72.47;;;34.03;;
2177;SDS011;1095;50.992;6.798;2023-02-15T01:03:52;64.13;;;34.55;;
2177;SDS011;1095;50.992;6.798;2023-02-15T01:06:19;66.90;;;34.08;;
2177;SDS011;1095;50.992;6.798;2023-02-15T01:08:46;69.82;;;34.38;;
2177;SDS011;1095;50.992;6.798;2023-02-15T01:11:13;69.78;;;35.72;;
2177;SDS011;1095;50.992;6.798;2023-02-15T01:13:46;67.30;;;33.42;;
2177;SDS011;1095;50.992;6.798;2023-02-15T01:16:17;68.85;;;35.08;;
2177;SDS011;1095;50.992;6.798;2023-02-15T01:18:44;66.57;;;33.63;;
2177;SDS011;1095;50.992;6.798;2023-02-15T01:21:12;71.43;;;35.00;;
2177;SDS011;1095;50.992;6.798;2023-02-15T01:23:40;70.15;;;35.55;;
2177;SDS011;1095;50.992;6.798;2023-02-15T01:26:07;67.50;;;33.92;;
2177;SDS011;1095;50.992;6.798;2023-02-15T01:28:34;68.30;;;36.22;;
2177;SDS011;1095;50.992;6.798;2023-02-15T01:31:04;68.53;;;35.35;;
2177;SDS011;1095;50.992;6.798;2023-02-15T01:33:33;69.80;;;35.85;;
2177;SDS011;1095;50.992;6.798;2023-02-15T01:36:01;68.07;;;34.53;;
2177;SDS011;1095;50.992;6.798;2023-02-15T01:38:28;72.40;;;36.53;;
2177;SDS011;1095;50.992;6.798;2023-02-15T01:40:55;73.22;;;36.20;;
2177;SDS011;1095;50.992;6.798;2023-02-15T01:43:43;70.35;;;34.85;;
2177;SDS011;1095;50.992;6.798;2023-02-15T01:46:12;75.45;;;36.08;;
2177;SDS011;1095;50.992;6.798;2023-02-15T01:48:43;74.97;;;34.88;;
2177;SDS011;1095;50.992;6.798;2023-02-15T01:51:12;74.97;;;36.17;;
2177;SDS011;1095;50.992;6.798;2023-02-15T01:53:45;70.30;;;35.08;;
2177;SDS011;1095;50.992;6.798;2023-02-15T01:56:18;70.70;;;34.42;;
2177;SDS011;1095;50.992;6.798;2023-02-15T01:58:48;68.10;;;34.42;;
2177;SDS011;1095;50.992;6.798;2023-02-15T02:01:17;67.38;;;34.28;;
2177;SDS011;1095;50.992;6.798;2023-02-15T02:03:49;67.30;;;33.17;;
2177;SDS011;1095;50.992;6.798;2023-02-15T02:06:22;69.55;;;35.00;;
2177;SDS011;1095;50.992;6.798;2023-02-15T02:08:50;64.65;;;33.75;;
2177;SDS011;1095;50.992;6.798;2023-02-15T02:11:17;74.18;;;34.05;;
2177;SDS011;1095;50.992;6.798;2023-02-15T02:13:44;70.97;;;35.53;;
2177;SDS011;1095;50.992;6.798;2023-02-15T02:16:13;73.68;;;35.45;;
2177;SDS011;1095;50.992;6.798;2023-02-15T02:18:48;70.13;;;34.75;;
2177;SDS011;1095;50.992;6.798;2023-02-15T02:21:30;72.30;;;35.53;;
2177;SDS011;1095;50.992;6.798;2023-02-15T02:24:18;66.68;;;32.72;;
2177;SDS011;1095;50.992;6.798;2023-02-15T02:27:06;65.70;;;33.42;;
2177;SDS011;1095;50.992;6.798;2023-02-15T02:29:53;66.88;;;32.33;;
2177;SDS011;1095;50.992;6.798;2023-02-15T02:35:37;68.00;;;33.47;;
2177;SDS011;1095;50.992;6.798;2023-02-15T02:38:11;70.88;;;35.13;;
2177;SDS011;1095;50.992;6.798;2023-02-15T02:40:48;64.57;;;32.90;;
2177;SDS011;1095;50.992;6.798;2023-02-15T02:43:23;68.35;;;33.35;;
2177;SDS011;1095;50.992;6.798;2023-02-15T02:45:58;65.20;;;32.65;;
2177;SDS011;1095;50.992;6.798;2023-02-15T02:48:32;74.25;;;34.03;;
2177;SDS011;1095;50.992;6.798;2023-02-15T02:51:01;70.60;;;34.28;;
2177;SDS011;1095;50.992;6.798;2023-02-15T02:53:27;72.68;;;33.38;;
2177;SDS011;1095;50.992;6.798;2023-02-15T02:55:58;68.70;;;33.70;;
2177;SDS011;1095;50.992;6.798;2023-02-15T02:58:29;72.03;;;34.75;;
2177;SDS011;1095;50.992;6.798;2023-02-15T03:01:01;70.00;;;33.63;;
2177;SDS011;1095;50.992;6.798;2023-02-15T03:03:36;64.85;;;32.35;;
2177;SDS011;1095;50.992;6.798;2023-02-15T03:06:07;70.32;;;33.05;;
2177;SDS011;1095;50.992;6.798;2023-02-15T03:08:37;73.63;;;34.58;;
2177;SDS011;1095;50.992;6.798;2023-02-15T03:11:06;74.45;;;35.38;;
2177;SDS011;1095;50.992;6.798;2023-02-15T03:13:34;76.00;;;34.67;;
2177;SDS011;1095;50.992;6.798;2023-02-15T03:16:01;75.70;;;35.22;;
2177;SDS011;1095;50.992;6.798;2023-02-15T03:18:50;79.15;;;35.30;;
2177;SDS011;1095;50.992;6.798;2023-02-15T03:23:52;70.38;;;33.90;;
2177;SDS011;1095;50.992;6.798;2023-02-15T03:26:23;75.68;;;34.47;;
2177;SDS011;1095;50.992;6.798;2023-02-15T03:28:52;74.97;;;36.13;;
2177;SDS011;1095;50.992;6.798;2023-02-15T03:31:21;71.22;;;35.83;;
2177;SDS011;1095;50.992;6.798;2023-02-15T03:33:53;82.97;;;36.22;;
2177;SDS011;1095;50.992;6.798;2023-02-15T03:36:26;75.75;;;35.03;;
2177;SDS011;1095;50.992;6.798;2023-02-15T03:39:02;74.25;;;35.05;;
2177;SDS011;1095;50.992;6.798;2023-02-15T03:41:42;78.63;;;34.72;;
2177;SDS011;1095;50.992;6.798;2023-02-15T03:44:16;74.90;;;33.45;;
2177;SDS011;1095;50.992;6.798;2023-02-15T03:46:51;76.13;;;32.83;;
2177;SDS011;1095;50.992;6.798;2023-02-15T03:49:49;78.75;;;34.15;;
2177;SDS011;1095;50.992;6.798;2023-02-15T03:52:51;68.65;;;34.65;;
2177;SDS011;1095;50.992;6.798;2023-02-15T03:55:38;71.10;;;33.63;;
2177;SDS011;1095;50.992;6.798;2023-02-15T03:58:20;72.55;;;33.38;;
2177;SDS011;1095;50.992;6.798;2023-02-15T04:01:09;76.60;;;34.75;;
2177;SDS011;1095;50.992;6.798;2023-02-15T04:04:09;74.45;;;33.72;;
2177;SDS011;1095;50.992;6.798;2023-02-15T04:06:42;76.07;;;35.72;;
2177;SDS011;1095;50.992;6.798;2023-02-15T04:09:13;74.18;;;33.38;;
2177;SDS011;1095;50.992;6.798;2023-02-15T04:11:54;75.00;;;34.50;;
2177;SDS011;1095;50.992;6.798;2023-02-15T04:14:21;81.43;;;35.38;;
2177;SDS011;1095;50.992;6.798;2023-02-15T04:17:04;76.43;;;35.45;;
2177;SDS011;1095;50.992;6.798;2023-02-15T04:19:32;78.63;;;35.60;;
2177;SDS011;1095;50.992;6.798;2023-02-15T04:22:16;81.82;;;33.67;;
2177;SDS011;1095;50.992;6.798;2023-02-15T04:25:01;82.18;;;34.05;;
2177;SDS011;1095;50.992;6.798;2023-02-15T04:27:37;83.20;;;35.35;;
2177;SDS011;1095;50.992;6.798;2023-02-15T04:30:05;76.53;;;33.80;;
2177;SDS011;1095;50.992;6.798;2023-02-15T04:32:33;79.25;;;35.75;;
2177;SDS011;1095;50.992;6.798;2023-02-15T04:35:00;76.50;;;33.83;;
2177;SDS011;1095;50.992;6.798;2023-02-15T04:37:26;81.47;;;35.33;;
2177;SDS011;1095;50.992;6.798;2023-02-15T04:39:53;74.45;;;34.47;;
2177;SDS011;1095;50.992;6.798;2023-02-15T04:42:21;81.00;;;35.45;;
2177;SDS011;1095;50.992;6.798;2023-02-15T04:44:48;75.60;;;33.08;;
2177;SDS011;1095;50.992;6.798;2023-02-15T04:47:14;79.72;;;35.25;;
2177;SDS011;1095;50.992;6.798;2023-02-15T04:49:41;83.85;;;36.53;;
2177;SDS011;1095;50.992;6.798;2023-02-15T04:52:08;75.85;;;33.40;;
2177;SDS011;1095;50.992;6.798;2023-02-15T04:54:35;78.68;;;34.25;;
2177;SDS011;1095;50.992;6.798;2023-02-15T04:57:03;78.32;;;36.25;;
2177;SDS011;1095;50.992;6.798;2023-02-15T04:59:31;80.55;;;35.25;;
2177;SDS011;1095;50.992;6.798;2023-02-15T05:01:58;79.35;;;35.50;;
2177;SDS011;1095;50.992;6.798;2023-02-15T05:04:24;80.15;;;35.85;;
2177;SDS011;1095;50.992;6.798;2023-02-15T05:06:51;77.15;;;34.33;;
2177;SDS011;1095;50.992;6.798;2023-02-15T05:09:17;79.50;;;35.45;;
2177;SDS011;1095;50.992;6.798;2023-02-15T05:11:44;79.45;;;35.33;;
2177;SDS011;1095;50.992;6.798;2023-02-15T05:14:11;75.70;;;33.05;;
2177;SDS011;1095;50.992;6.798;2023-02-15T05:16:39;79.75;;;34.60;;
2177;SDS011;1095;50.992;6.798;2023-02-15T05:19:05;73.90;;;33.17;;
2177;SDS011;1095;50.992;6.798;2023-02-15T05:21:32;79.38;;;34.53;;
2177;SDS011;1095;50.992;6.798;2023-02-15T05:23:59;75.45;;;34.22;;
2177;SDS011;1095;50.992;6.798;2023-02-15T05:26:46;80.18;;;34.58;;
2177;SDS011;1095;50.992;6.798;2023-02-15T05:29:30;81.63;;;34.78;;
2177;SDS011;1095;50.992;6.798;2023-02-15T05:31:58;75.30;;;33.22;;
2177;SDS011;1095;50.992;6.798;2023-02-15T05:34:25;78.07;;;33.63;;
2177;SDS011;1095;50.992;6.798;2023-02-15T05:36:52;79.18;;;34.28;;
2177;SDS011;1095;50.992;6.798;2023-02-15T05:39:18;72.90;;;31.60;;
2177;SDS011;1095;50.992;6.798;2023-02-15T05:41:45;77.03;;;33.67;;
2177;SDS011;1095;50.992;6.798;2023-02-15T05:44:12;77.97;;;32.78;;
2177;SDS011;1095;50.992;6.798;2023-02-15T05:46:38;74.63;;;31.80;;
2177;SDS011;1095;50.992;6.798;2023-02-15T05:49:06;73.95;;;31.13;;
2177;SDS011;1095;50.992;6.798;2023-02-15T05:51:33;71.60;;;29.70;;
2177;SDS011;1095;50.992;6.798;2023-02-15T05:53:59;69.63;;;32.63;;
2177;SDS011;1095;50.992;6.798;2023-02-15T05:56:26;73.50;;;32.47;;
2177;SDS011;1095;50.992;6.798;2023-02-15T05:58:53;71.75;;;30.92;;
2177;SDS011;1095;50.992;6.798;2023-02-15T06:01:20;71.45;;;31.80;;
2177;SDS011;1095;50.992;6.798;2023-02-15T06:03:48;73.00;;;32.05;;
2177;SDS011;1095;50.992;6.798;2023-02-15T06:06:16;70.00;;;31.75;;
2177;SDS011;1095;50.992;6.798;2023-02-15T06:08:43;74.00;;;31.98;;
2177;SDS011;1095;50.992;6.798;2023-02-15T06:11:10;70.63;;;30.08;;
2177;SDS011;1095;50.992;6.798;2023-02-15T06:13:36;75.32;;;32.63;;
2177;SDS011;1095;50.992;6.798;2023-02-15T06:16:03;75.20;;;32.20;;
2177;SDS011;1095;50.992;6.798;2023-02-15T06:18:30;71.60;;;31.83;;
2177;SDS011;1095;50.992;6.798;2023-02-15T06:20:56;68.28;;;30.02;;
2177;SDS011;1095;50.992;6.798;2023-02-15T06:23:24;69.95;;;32.25;;
2177;SDS011;1095;50.992;6.798;2023-02-15T06:25:51;74.40;;;31.48;;
2177;SDS011;1095;50.992;6.798;2023-02-15T06:28:18;71.38;;;31.48;;
2177;SDS011;1095;50.992;6.798;2023-02-15T06:30:44;69.78;;;32.05;;
2177;SDS011;1095;50.992;6.798;2023-02-15T06:33:11;66.75;;;30.52;;
2177;SDS011;1095;50.992;6.798;2023-02-15T06:35:37;67.78;;;32.50;;
2177;SDS011;1095;50.992;6.798;2023-02-15T06:38:04;71.22;;;31.80;;
2177;SDS011;1095;50.992;6.798;2023-02-15T06:40:32;70.22;;;30.80;;
2177;SDS011;1095;50.992;6.798;2023-02-15T06:42:59;70.75;;;32.05;;
2177;SDS011;1095;50.992;6.798;2023-02-15T06:45:26;71.65;;;32.08;;
2177;SDS011;1095;50.992;6.798;2023-02-15T06:47:52;67.25;;;31.48;;
2177;SDS011;1095;50.992;6.798;2023-02-15T06:50:19;64.90;;;30.25;;
2177;SDS011;1095;50.992;6.798;2023-02-15T06:52:46;70.85;;;32.63;;
2177;SDS011;1095;50.992;6.798;2023-02-15T06:55:15;67.35;;;30.10;;
2177;SDS011;1095;50.992;6.798;2023-02-15T06:57:44;67.95;;;29.27;;
2177;SDS011;1095;50.992;6.798;2023-02-15T07:00:13;64.53;;;31.23;;
2177;SDS011;1095;50.992;6.798;2023-02-15T07:02:45;65.13;;;29.70;;
2177;SDS011;1095;50.992;6.798;2023-02-15T07:05:12;56.63;;;28.05;;
2177;SDS011;1095;50.992;6.798;2023-02-15T07:07:38;60.00;;;28.45;;
2177;SDS011;1095;50.992;6.798;2023-02-15T07:10:06;66.43;;;30.70;;
2177;SDS011;1095;50.992;6.798;2023-02-15T07:12:33;62.72;;;30.83;;
2177;SDS011;1095;50.992;6.798;2023-02-15T07:15:10;66.10;;;30.35;;
2177;SDS011;1095;50.992;6.798;2023-02-15T07:17:39;59.53;;;28.25;;
2177;SDS011;1095;50.992;6.798;2023-02-15T07:20:07;59.05;;;28.80;;
2177;SDS011;1095;50.992;6.798;2023-02-15T07:22:35;58.10;;;28.17;;
2177;SDS011;1095;50.992;6.798;2023-02-15T07:25:02;56.88;;;27.73;;
2177;SDS011;1095;50.992;6.798;2023-02-15T07:27:29;53.92;;;27.10;;
2177;SDS011;1095;50.992;6.798;2023-02-15T07:29:57;51.30;;;26.08;;
2177;SDS011;1095;50.992;6.798;2023-02-15T07:32:28;47.35;;;26.02;;
2177;SDS011;1095;50.992;6.798;2023-02-15T07:34:55;45.55;;;25.95;;
2177;SDS011;1095;50.992;6.798;2023-02-15T07:37:22;43.60;;;23.52;;
2177;SDS011;1095;50.992;6.798;2023-02-15T07:39:49;42.47;;;22.50;;
2177;SDS011;1095;50.992;6.798;2023-02-15T07:42:15;40.80;;;22.27;;
2177;SDS011;1095;50.992;6.798;2023-02-15T07:44:42;44.55;;;24.73;;
2177;SDS011;1095;50.992;6.798;2023-02-15T07:47:09;39.35;;;22.10;;
2177;SDS011;1095;50.992;6.798;2023-02-15T07:49:38;41.58;;;21.90;;
2177;SDS011;1095;50.992;6.798;2023-02-15T07:52:05;40.42;;;22.70;;
2177;SDS011;1095;50.992;6.798;2023-02-15T07:54:32;40.47;;;21.90;;
2177;SDS011;1095;50.992;6.798;2023-02-15T07:57:00;39.50;;;21.42;;
2177;SDS011;1095;50.992;6.798;2023-02-15T07:59:26;37.90;;;22.50;;
2177;SDS011;1095;50.992;6.798;2023-02-15T08:01:53;37.63;;;20.63;;
2177;SDS011;1095;50.992;6.798;2023-02-15T08:04:21;34.60;;;20.88;;
2177;SDS011;1095;50.992;6.798;2023-02-15T08:06:51;36.80;;;20.17;;
2177;SDS011;1095;50.992;6.798;2023-02-15T08:09:18;39.75;;;21.65;;
2177;SDS011;1095;50.992;6.798;2023-02-15T08:11:46;35.65;;;20.70;;
2177;SDS011;1095;50.992;6.798;2023-02-15T08:14:14;34.58;;;19.85;;
2177;SDS011;1095;50.992;6.798;2023-02-15T08:16:43;36.13;;;20.73;;
2177;SDS011;1095;50.992;6.798;2023-02-15T08:19:11;33.47;;;19.95;;
2177;SDS011;1095;50.992;6.798;2023-02-15T08:21:39;35.80;;;21.00;;
2177;SDS011;1095;50.992;6.798;2023-02-15T08:24:09;32.28;;;18.90;;
2177;SDS011;1095;50.992;6.798;2023-02-15T08:26:37;30.08;;;18.92;;
2177;SDS011;1095;50.992;6.798;2023-02-15T08:29:05;31.38;;;19.85;;
2177;SDS011;1095;50.992;6.798;2023-02-15T08:31:33;33.67;;;20.73;;
2177;SDS011;1095;50.992;6.798;2023-02-15T08:34:00;34.70;;;20.90;;
2177;SDS011;1095;50.992;6.798;2023-02-15T08:36:28;33.45;;;20.40;;
2177;SDS011;1095;50.992;6.798;2023-02-15T08:38:57;32.70;;;20.33;;
2177;SDS011;1095;50.992;6.798;2023-02-15T08:41:26;33.17;;;19.67;;
2177;SDS011;1095;50.992;6.798;2023-02-15T08:43:55;34.92;;;21.08;;
2177;SDS011;1095;50.992;6.798;2023-02-15T08:46:24;32.30;;;19.23;;
2177;SDS011;1095;50.992;6.798;2023-02-15T08:48:52;32.35;;;20.02;;
2177;SDS011;1095;50.992;6.798;2023-02-15T08:51:19;31.15;;;19.88;;
2177;SDS011;1095;50.992;6.798;2023-02-15T08:53:48;33.15;;;20.95;;
2177;SDS011;1095;50.992;6.798;2023-02-15T08:56:17;35.80;;;20.83;;
2177;SDS011;1095;50.992;6.798;2023-02-15T08:58:46;30.63;;;19.80;;
2177;SDS011;1095;50.992;6.798;2023-02-15T09:01:14;33.63;;;20.30;;
2177;SDS011;1095;50.992;6.798;2023-02-15T09:03:45;29.30;;;19.08;;
2177;SDS011;1095;50.992;6.798;2023-02-15T09:06:12;34.97;;;21.20;;
2177;SDS011;1095;50.992;6.798;2023-02-15T09:08:39;33.20;;;19.98;;
2177;SDS011;1095;50.992;6.798;2023-02-15T09:11:08;32.58;;;19.92;;
2177;SDS011;1095;50.992;6.798;2023-02-15T09:13:36;29.60;;;19.00;;
2177;SDS011;1095;50.992;6.798;2023-02-15T09:16:05;30.65;;;19.75;;
2177;SDS011;1095;50.992;6.798;2023-02-15T09:18:34;28.08;;;18.45;;
2177;SDS011;1095;50.992;6.798;2023-02-15T09:21:09;33.25;;;20.77;;
2177;SDS011;1095;50.992;6.798;2023-02-15T09:23:38;30.75;;;19.15;;
2177;SDS011;1095;50.992;6.798;2023-02-15T09:26:05;29.38;;;19.30;;
2177;SDS011;1095;50.992;6.798;2023-02-15T09:28:33;36.60;;;24.58;;
2177;SDS011;1095;50.992;6.798;2023-02-15T09:31:09;30.80;;;19.42;;
2177;SDS011;1095;50.992;6.798;2023-02-15T09:33:37;28.33;;;18.08;;
2177;SDS011;1095;50.992;6.798;2023-02-15T09:36:05;31.05;;;18.88;;
2177;SDS011;1095;50.992;6.798;2023-02-15T09:38:39;30.45;;;18.65;;
2177;SDS011;1095;50.992;6.798;2023-02-15T09:41:10;30.20;;;19.10;;
2177;SDS011;1095;50.992;6.798;2023-02-15T09:43:56;32.08;;;19.95;;
2177;SDS011;1095;50.992;6.798;2023-02-15T09:46:44;31.30;;;19.40;;
2177;SDS011;1095;50.992;6.798;2023-02-15T09:49:31;32.72;;;20.25;;
2177;SDS011;1095;50.992;6.798;2023-02-15T09:52:19;30.02;;;18.95;;
2177;SDS011;1095;50.992;6.798;2023-02-15T09:55:09;29.88;;;19.30;;
2177;SDS011;1095;50.992;6.798;2023-02-15T09:57:53;38.22;;;18.58;;
2177;SDS011;1095;50.992;6.798;2023-02-15T10:00:30;27.90;;;18.45;;
2177;SDS011;1095;50.992;6.798;2023-02-15T10:03:11;32.10;;;19.70;;
2177;SDS011;1095;50.992;6.798;2023-02-15T10:05:55;34.95;;;19.33;;
2177;SDS011;1095;50.992;6.798;2023-02-15T10:08:42;31.98;;;19.90;;
2177;SDS011;1095;50.992;6.798;2023-02-15T10:11:20;27.52;;;18.42;;
2177;SDS011;1095;50.992;6.798;2023-02-15T10:14:12;32.30;;;19.13;;
2177;SDS011;1095;50.992;6.798;2023-02-15T10:16:46;26.98;;;18.48;;
2177;SDS011;1095;50.992;6.798;2023-02-15T10:19:26;29.83;;;19.25;;
2177;SDS011;1095;50.992;6.798;2023-02-15T10:22:04;29.50;;;18.42;;
2177;SDS011;1095;50.992;6.798;2023-02-15T10:24:47;28.95;;;18.48;;
2177;SDS011;1095;50.992;6.798;2023-02-15T10:27:26;26.55;;;17.92;;
2177;SDS011;1095;50.992;6.798;2023-02-15T10:30:01;30.92;;;19.33;;
2177;SDS011;1095;50.992;6.798;2023-02-15T10:32:35;25.77;;;17.70;;
2177;SDS011;1095;50.992;6.798;2023-02-15T10:35:13;26.55;;;17.90;;
2177;SDS011;1095;50.992;6.798;2023-02-15T10:37:51;28.55;;;19.13;;
2177;SDS011;1095;50.992;6.798;2023-02-15T10:40:28;30.38;;;19.15;;
2177;SDS011;1095;50.992;6.798;2023-02-15T10:43:06;26.77;;;18.55;;
2177;SDS011;1095;50.992;6.798;2023-02-15T10:45:45;27.80;;;18.05;;
2177;SDS011;1095;50.992;6.798;2023-02-15T10:48:23;27.45;;;18.17;;
2177;SDS011;1095;50.992;6.798;2023-02-15T10:51:02;27.02;;;17.35;;
2177;SDS011;1095;50.992;6.798;2023-02-15T10:53:35;29.00;;;17.27;;
2177;SDS011;1095;50.992;6.798;2023-02-15T10:56:17;28.58;;;17.50;;
2177;SDS011;1095;50.992;6.798;2023-02-15T10:58:55;26.40;;;17.87;;
2177;SDS011;1095;50.992;6.798;2023-02-15T11:01:34;26.65;;;17.85;;
2177;SDS011;1095;50.992;6.798;2023-02-15T11:06:49;28.70;;;17.85;;
2177;SDS011;1095;50.992;6.798;2023-02-15T11:09:19;24.23;;;16.80;;
2177;SDS011;1095;50.992;6.798;2023-02-15T11:11:49;27.67;;;17.50;;
2177;SDS011;1095;50.992;6.798;2023-02-15T11:14:20;29.75;;;18.33;;
2177;SDS011;1095;50.992;6.798;2023-02-15T11:17:04;30.05;;;17.92;;
2177;SDS011;1095;50.992;6.798;2023-02-15T11:19:37;26.83;;;17.02;;
2177;SDS011;1095;50.992;6.798;2023-02-15T11:22:10;26.40;;;17.20;;
2177;SDS011;1095;50.992;6.798;2023-02-15T11:24:39;25.67;;;16.70;;
2177;SDS011;1095;50.992;6.798;2023-02-15T11:27:15;27.92;;;18.08;;
2177;SDS011;1095;50.992;6.798;2023-02-15T11:29:50;26.55;;;18.25;;
2177;SDS011;1095;50.992;6.798;2023-02-15T11:32:23;28.13;;;17.80;;
2177;SDS011;1095;50.992;6.798;2023-02-15T11:34:54;26.13;;;18.20;;
2177;SDS011;1095;50.992;6.798;2023-02-15T11:37:27;30.05;;;17.67;;
2177;SDS011;1095;50.992;6.798;2023-02-15T11:39:58;28.40;;;18.40;;
2177;SDS011;1095;50.992;6.798;2023-02-15T11:42:28;29.55;;;18.60;;
2177;SDS011;1095;50.992;6.798;2023-02-15T11:44:59;27.50;;;18.30;;
2177;SDS011;1095;50.992;6.798;2023-02-15T11:47:30;25.52;;;17.90;;
2177;SDS011;1095;50.992;6.798;2023-02-15T11:49:57;27.98;;;17.10;;
2177;SDS011;1095;50.992;6.798;2023-02-15T11:52:23;25.52;;;18.17;;
2177;SDS011;1095;50.992;6.798;2023-02-15T11:54:51;25.40;;;17.73;;
2177;SDS011;1095;50.992;6.798;2023-02-15T11:57:20;26.83;;;18.58;;
2177;SDS011;1095;50.992;6.798;2023-02-15T11:59:53;27.45;;;18.02;;
2177;SDS011;1095;50.992;6.798;2023-02-15T12:02:24;28.65;;;18.38;;
2177;SDS011;1095;50.992;6.798;2023-02-15T12:04:56;26.90;;;17.23;;
2177;SDS011;1095;50.992;6.798;2023-02-15T12:07:28;27.52;;;18.13;;
2177;SDS011;1095;50.992;6.798;2023-02-15T12:10:00;30.77;;;18.70;;
2177;SDS011;1095;50.992;6.798;2023-02-15T12:12:32;25.73;;;16.77;;
2177;SDS011;1095;50.992;6.798;2023-02-15T12:15:01;25.52;;;17.42;;
2177;SDS011;1095;50.992;6.798;2023-02-15T12:17:29;24.58;;;17.02;;
2177;SDS011;1095;50.992;6.798;2023-02-15T12:19:59;26.52;;;17.80;;
2177;SDS011;1095;50.992;6.798;2023-02-15T12:22:30;26.65;;;17.48;;
2177;SDS011;1095;50.992;6.798;2023-02-15T12:25:00;25.02;;;17.52;;
2177;SDS011;1095;50.992;6.798;2023-02-15T12:27:30;25.15;;;17.45;;
2177;SDS011;1095;50.992;6.798;2023-02-15T12:29:59;27.95;;;18.05;;
2177;SDS011;1095;50.992;6.798;2023-02-15T12:32:28;24.35;;;17.35;;
2177;SDS011;1095;50.992;6.798;2023-02-15T12:35:00;29.90;;;18.48;;
2177;SDS011;1095;50.992;6.798;2023-02-15T12:37:35;27.58;;;17.50;;
2177;SDS011;1095;50.992;6.798;2023-02-15T12:40:10;26.13;;;17.73;;
2177;SDS011;1095;50.992;6.798;2023-02-15T12:42:46;23.05;;;17.00;;
2177;SDS011;1095;50.992;6.798;2023-02-15T12:45:20;25.40;;;17.80;;
2177;SDS011;1095;50.992;6.798;2023-02-15T12:48:07;23.63;;;17.02;;
2177;SDS011;1095;50.992;6.798;2023-02-15T12:50:36;25.45;;;17.40;;
2177;SDS011;1095;50.992;6.798;2023-02-15T12:53:07;23.52;;;17.13;;
2177;SDS011;1095;50.992;6.798;2023-02-15T12:55:38;25.40;;;17.10;;
2177;SDS011;1095;50.992;6.798;2023-02-15T12:58:15;27.88;;;16.60;;
2177;SDS011;1095;50.992;6.798;2023-02-15T13:00:43;24.77;;;17.83;;
2177;SDS011;1095;50.992;6.798;2023-02-15T13:03:15;23.25;;;17.13;;
2177;SDS011;1095;50.992;6.798;2023-02-15T13:05:44;27.33;;;17.48;;
2177;SDS011;1095;50.992;6.798;2023-02-15T13:08:17;27.17;;;17.38;;
2177;SDS011;1095;50.992;6.798;2023-02-15T13:10:52;27.40;;;17.95;;
2177;SDS011;1095;50.992;6.798;2023-02-15T13:13:21;23.83;;;17.08;;
2177;SDS011;1095;50.992;6.798;2023-02-15T13:15:51;22.48;;;16.98;;
2177;SDS011;1095;50.992;6.798;2023-02-15T13:18:23;24.25;;;17.58;;
2177;SDS011;1095;50.992;6.798;2023-02-15T13:20:56;24.73;;;16.08;;
2177;SDS011;1095;50.992;6.798;2023-02-15T13:23:28;28.58;;;16.77;;
2177;SDS011;1095;50.992;6.798;2023-02-15T13:25:57;23.55;;;16.63;;
2177;SDS011;1095;50.992;6.798;2023-02-15T13:28:26;25.90;;;16.63;;
2177;SDS011;1095;50.992;6.798;2023-02-15T13:31:02;26.08;;;16.42;;
2177;SDS011;1095;50.992;6.798;2023-02-15T13:33:31;24.60;;;16.30;;
2177;SDS011;1095;50.992;6.798;2023-02-15T13:36:02;29.25;;;17.88;;
2177;SDS011;1095;50.992;6.798;2023-02-15T13:38:45;22.90;;;15.55;;
2177;SDS011;1095;50.992;6.798;2023-02-15T13:41:16;25.75;;;16.10;;
2177;SDS011;1095;50.992;6.798;2023-02-15T13:43:49;25.55;;;16.90;;
2177;SDS011;1095;50.992;6.798;2023-02-15T13:46:24;23.95;;;16.60;;
2177;SDS011;1095;50.992;6.798;2023-02-15T13:49:11;24.40;;;16.50;;
2177;SDS011;1095;50.992;6.798;2023-02-15T13:51:45;22.38;;;15.32;;
2177;SDS011;1095;50.992;6.798;2023-02-15T13:54:31;24.63;;;16.80;;
2177;SDS011;1095;50.992;6.798;2023-02-15T13:57:15;23.08;;;16.30;;
2177;SDS011;1095;50.992;6.798;2023-02-15T14:00:11;25.27;;;16.05;;
2177;SDS011;1095;50.992;6.798;2023-02-15T14:02:56;24.38;;;16.40;;
2177;SDS011;1095;50.992;6.798;2023-02-15T14:05:50;24.38;;;17.17;;
2177;SDS011;1095;50.992;6.798;2023-02-15T14:08:47;24.30;;;16.40;;
2177;SDS011;1095;50.992;6.798;2023-02-15T14:11:27;29.15;;;16.55;;
2177;SDS011;1095;50.992;6.798;2023-02-15T14:14:11;25.65;;;16.92;;
2177;SDS011;1095;50.992;6.798;2023-02-15T14:16:54;24.15;;;16.88;;
2177;SDS011;1095;50.992;6.798;2023-02-15T14:19:29;24.00;;;15.85;;
2177;SDS011;1095;50.992;6.798;2023-02-15T14:24:34;24.77;;;17.05;;
2177;SDS011;1095;50.992;6.798;2023-02-15T14:27:12;25.85;;;17.23;;
2177;SDS011;1095;50.992;6.798;2023-02-15T14:29:49;22.83;;;16.88;;
2177;SDS011;1095;50.992;6.798;2023-02-15T14:32:21;24.63;;;17.38;;
2177;SDS011;1095;50.992;6.798;2023-02-15T14:34:57;26.30;;;16.27;;
2177;SDS011;1095;50.992;6.798;2023-02-15T14:37:30;24.35;;;16.05;;
2177;SDS011;1095;50.992;6.798;2023-02-15T14:40:05;23.52;;;16.48;;
2177;SDS011;1095;50.992;6.798;2023-02-15T14:42:57;24.17;;;16.25;;
2177;SDS011;1095;50.992;6.798;2023-02-15T14:45:34;25.00;;;16.55;;
2177;SDS011;1095;50.992;6.798;2023-02-15T14:48:09;24.13;;;16.38;;
2177;SDS011;1095;50.992;6.798;2023-02-15T14:50:43;23.15;;;16.67;;
2177;SDS011;1095;50.992;6.798;2023-02-15T14:53:14;21.52;;;15.77;;
2177;SDS011;1095;50.992;6.798;2023-02-15T15:01:42;23.55;;;16.15;;
2177;SDS011;1095;50.992;6.798;2023-02-15T15:04:23;24.88;;;16.98;;
2177;SDS011;1095;50.992;6.798;2023-02-15T15:06:59;23.80;;;16.48;;
2177;SDS011;1095;50.992;6.798;2023-02-15T15:09:31;25.27;;;16.27;;
2177;SDS011;1095;50.992;6.798;2023-02-15T15:15:05;22.95;;;15.95;;
2177;SDS011;1095;50.992;6.798;2023-02-15T15:20:38;24.88;;;16.52;;
2177;SDS011;1095;50.992;6.798;2023-02-15T15:26:27;27.58;;;17.17;;
2177;SDS011;1095;50.992;6.798;2023-02-15T15:28:59;25.08;;;18.02;;
2177;SDS011;1095;50.992;6.798;2023-02-15T15:31:30;24.77;;;17.42;;
2177;SDS011;1095;50.992;6.798;2023-02-15T15:34:22;25.55;;;17.20;;
2177;SDS011;1095;50.992;6.798;2023-02-15T15:37:18;29.30;;;17.73;;
2177;SDS011;1095;50.992;6.798;2023-02-15T15:43:19;21.80;;;16.55;;
2177;SDS011;1095;50.992;6.798;2023-02-15T15:49:02;27.95;;;17.65;;